createdAt,value
2022-11-29T00:00:46.770Z,1014.30
2022-11-29T00:01:49.005Z,1014.27
2022-11-29T00:02:49.217Z,1014.30
2022-11-29T00:03:47.724Z,1014.29
2022-11-29T00:04:48.032Z,1014.31
2022-11-29T00:05:48.548Z,1014.30
2022-11-29T00:06:48.571Z,1014.29
2022-11-29T00:07:48.916Z,1014.30
2022-11-29T00:08:51.063Z,1014.23
2022-11-29T00:09:51.252Z,1014.30
2022-11-29T00:10:50.682Z,1014.31
2022-11-29T00:11:50.841Z,1014.27
2022-11-29T00:12:51.258Z,1014.30
2022-11-29T00:13:52.520Z,1014.33
2022-11-29T00:14:52.692Z,1014.32
2022-11-29T00:15:51.996Z,1014.37
2022-11-29T00:16:52.442Z,1014.33
2022-11-29T00:17:52.753Z,1014.36
2022-11-29T00:18:54.006Z,1014.37
2022-11-29T00:19:53.352Z,1014.32
2022-11-29T00:20:55.551Z,1014.36
2022-11-29T00:21:52.952Z,1014.41
2022-11-29T00:22:53.251Z,1014.41
2022-11-29T00:23:55.430Z,1014.39
2022-11-29T00:24:53.815Z,1014.42
2022-11-29T00:25:54.122Z,1014.42
2022-11-29T00:26:55.316Z,1014.39
2022-11-29T00:27:54.673Z,1014.37
2022-11-29T00:28:55.889Z,1014.38
2022-11-29T00:29:57.181Z,1014.36
2022-11-29T00:30:57.300Z,1014.39
2022-11-29T00:31:57.414Z,1014.35
2022-11-29T00:32:58.112Z,1014.37
2022-11-29T00:33:58.279Z,1014.36
2022-11-29T00:34:59.706Z,1014.33
2022-11-29T00:35:58.634Z,1014.32
2022-11-29T00:36:59.333Z,1014.32
2022-11-29T00:37:57.719Z,1014.29
2022-11-29T00:38:58.024Z,1014.32
2022-11-29T00:39:59.207Z,1014.32
2022-11-29T00:41:00.399Z,1014.30
2022-11-29T00:42:00.588Z,1014.33
2022-11-29T00:43:00.782Z,1014.30
2022-11-29T00:44:01.436Z,1014.31
2022-11-29T00:45:01.633Z,1014.30
2022-11-29T00:46:01.874Z,1014.32
2022-11-29T00:47:02.044Z,1014.32
2022-11-29T00:48:02.230Z,1014.30
2022-11-29T00:49:02.897Z,1014.32
2022-11-29T00:50:03.083Z,1014.36
2022-11-29T00:51:01.594Z,1014.32
2022-11-29T00:52:03.763Z,1014.33
2022-11-29T00:53:03.942Z,1014.30
2022-11-29T00:54:02.440Z,1014.29
2022-11-29T00:55:04.649Z,1014.30
2022-11-29T00:56:03.020Z,1014.28
2022-11-29T00:57:05.337Z,1014.29
2022-11-29T00:58:05.518Z,1014.31
2022-11-29T00:59:07.169Z,1014.31
2022-11-29T01:00:04.199Z,1014.31
2022-11-29T01:01:06.456Z,1014.30
2022-11-29T01:02:04.912Z,1014.30
2022-11-29T01:03:05.179Z,1014.30
2022-11-29T01:04:07.353Z,1014.28
2022-11-29T01:05:05.624Z,1014.29
2022-11-29T01:06:07.813Z,1014.33
2022-11-29T01:07:06.192Z,1014.32
2022-11-29T01:08:06.493Z,1014.30
2022-11-29T01:09:08.716Z,1014.30
2022-11-29T01:10:07.087Z,1014.33
2022-11-29T01:11:07.402Z,1014.31
2022-11-29T01:12:07.698Z,1014.30
2022-11-29T01:13:08.012Z,1014.31
2022-11-29T01:14:10.171Z,1014.30
2022-11-29T01:15:10.364Z,1014.33
2022-11-29T01:16:08.875Z,1014.33
2022-11-29T01:17:11.055Z,1014.35
2022-11-29T01:18:09.443Z,1014.29
2022-11-29T01:19:10.713Z,1014.32
2022-11-29T01:20:11.034Z,1014.32
2022-11-29T01:21:11.390Z,1014.37
2022-11-29T01:22:12.589Z,1014.32
2022-11-29T01:23:10.959Z,1014.35
2022-11-29T01:24:11.270Z,1014.31
2022-11-29T01:25:11.573Z,1014.42
2022-11-29T01:26:13.737Z,1014.39
2022-11-29T01:27:13.920Z,1014.46
2022-11-29T01:28:12.428Z,1014.44
2022-11-29T01:29:12.729Z,1014.44
2022-11-29T01:30:13.042Z,1014.42
2022-11-29T01:31:13.465Z,1014.41
2022-11-29T01:32:15.564Z,1014.45
2022-11-29T01:33:13.928Z,1014.42
2022-11-29T01:34:14.238Z,1014.41
2022-11-29T01:35:14.551Z,1014.48
2022-11-29T01:36:14.862Z,1014.45
2022-11-29T01:37:17.039Z,1014.45
2022-11-29T01:38:17.223Z,1014.48
2022-11-29T01:39:15.729Z,1014.53
2022-11-29T01:40:16.040Z,1014.48
2022-11-29T01:41:16.352Z,1014.48
2022-11-29T01:42:16.664Z,1014.54
2022-11-29T01:43:18.862Z,1014.52
2022-11-29T01:44:17.250Z,1014.50
2022-11-29T01:45:17.631Z,1014.57
2022-11-29T01:46:17.868Z,1014.57
2022-11-29T01:47:19.972Z,1014.53
2022-11-29T01:48:20.165Z,1014.51
2022-11-29T01:49:20.334Z,1014.57
2022-11-29T01:50:21.053Z,1014.57
2022-11-29T01:51:21.184Z,1014.54
2022-11-29T01:52:19.569Z,1014.56
2022-11-29T01:53:21.758Z,1014.54
2022-11-29T01:54:21.943Z,1014.52
2022-11-29T01:55:22.125Z,1014.50
2022-11-29T01:56:22.316Z,1014.61
2022-11-29T01:57:21.062Z,1014.60
2022-11-29T01:58:23.254Z,1014.53
2022-11-29T01:59:23.457Z,1014.56
2022-11-29T02:00:21.972Z,1014.56
2022-11-29T02:01:23.364Z,1014.58
2022-11-29T02:02:22.645Z,1014.56
2022-11-29T02:03:22.925Z,1014.48
2022-11-29T02:04:25.114Z,1014.55
2022-11-29T02:05:23.510Z,1014.55
2022-11-29T02:06:23.817Z,1014.58
2022-11-29T02:07:24.158Z,1014.55
2022-11-29T02:08:24.448Z,1014.62
2022-11-29T02:09:26.630Z,1014.56
2022-11-29T02:10:26.833Z,1014.62
2022-11-29T02:11:25.339Z,1014.60
2022-11-29T02:12:25.651Z,1014.64
2022-11-29T02:13:25.957Z,1014.63
2022-11-29T02:14:28.139Z,1014.63
2022-11-29T02:15:27.525Z,1014.67
2022-11-29T02:16:28.721Z,1014.68
2022-11-29T02:17:28.900Z,1014.58
2022-11-29T02:18:29.063Z,1014.69
2022-11-29T02:19:29.245Z,1014.70
2022-11-29T02:20:29.946Z,1014.76
2022-11-29T02:21:30.142Z,1014.74
2022-11-29T02:22:30.346Z,1014.75
2022-11-29T02:23:30.504Z,1014.77
2022-11-29T02:24:31.185Z,1014.80
2022-11-29T02:25:31.379Z,1014.76
2022-11-29T02:26:33.055Z,1014.72
2022-11-29T02:27:31.764Z,1014.80
2022-11-29T02:28:32.469Z,1014.78
2022-11-29T02:29:32.656Z,1014.74
2022-11-29T02:30:32.867Z,1014.76
2022-11-29T02:31:33.017Z,1014.76
2022-11-29T02:32:33.712Z,1014.75
2022-11-29T02:33:32.094Z,1014.80
2022-11-29T02:34:34.285Z,1014.80
2022-11-29T02:35:32.682Z,1014.77
2022-11-29T02:36:32.998Z,1014.79
2022-11-29T02:37:33.306Z,1014.79
2022-11-29T02:38:33.618Z,1014.81
2022-11-29T02:39:35.796Z,1014.81
2022-11-29T02:40:34.186Z,1014.81
2022-11-29T02:41:35.418Z,1014.81
2022-11-29T02:42:34.806Z,1014.79
2022-11-29T02:43:37.034Z,1014.79
2022-11-29T02:44:37.218Z,1014.85
2022-11-29T02:45:35.721Z,1014.83
2022-11-29T02:46:36.038Z,1014.85
2022-11-29T02:47:36.340Z,1014.80
2022-11-29T02:48:36.650Z,1014.84
2022-11-29T02:49:38.843Z,1014.84
2022-11-29T02:50:37.242Z,1014.83
2022-11-29T02:51:38.512Z,1014.84
2022-11-29T02:52:37.887Z,1014.86
2022-11-29T02:53:38.191Z,1014.85
2022-11-29T02:54:38.495Z,1014.90
2022-11-29T02:55:40.686Z,1014.88
2022-11-29T02:56:41.832Z,1014.92
2022-11-29T02:57:39.356Z,1014.91
2022-11-29T02:58:39.671Z,1014.92
2022-11-29T02:59:41.839Z,1014.99
2022-11-29T03:00:41.022Z,1014.90
2022-11-29T03:01:42.464Z,1014.96
2022-11-29T03:02:40.870Z,1014.94
2022-11-29T03:03:41.137Z,1014.94
2022-11-29T03:04:42.567Z,1014.95
2022-11-29T03:05:43.626Z,1014.94
2022-11-29T03:06:43.811Z,1015.00
2022-11-29T03:07:42.371Z,1014.93
2022-11-29T03:08:42.667Z,1014.92
2022-11-29T03:09:42.975Z,1014.94
2022-11-29T03:10:45.171Z,1014.95
2022-11-29T03:11:43.556Z,1014.97
2022-11-29T03:12:45.736Z,1015.00
2022-11-29T03:13:44.119Z,1014.94
2022-11-29T03:14:44.601Z,1015.00
2022-11-29T03:15:46.184Z,1015.00
2022-11-29T03:16:45.040Z,1015.05
2022-11-29T03:17:47.230Z,1014.99
2022-11-29T03:18:45.620Z,1015.06
2022-11-29T03:19:45.975Z,1015.05
2022-11-29T03:20:48.121Z,1014.98
2022-11-29T03:21:48.319Z,1015.06
2022-11-29T03:22:46.831Z,1015.10
2022-11-29T03:23:47.130Z,1015.09
2022-11-29T03:24:49.324Z,1015.11
2022-11-29T03:25:49.509Z,1015.07
2022-11-29T03:26:49.715Z,1015.03
2022-11-29T03:27:48.336Z,1015.10
2022-11-29T03:28:48.647Z,1015.11
2022-11-29T03:29:48.951Z,1015.15
2022-11-29T03:30:51.178Z,1015.17
2022-11-29T03:31:50.072Z,1015.18
2022-11-29T03:32:49.820Z,1015.15
2022-11-29T03:33:50.131Z,1015.14
2022-11-29T03:34:55.686Z,1015.13
2022-11-29T03:35:53.629Z,1015.18
2022-11-29T03:36:52.829Z,1015.17
2022-11-29T03:37:53.009Z,1015.17
2022-11-29T03:38:53.203Z,1015.12
2022-11-29T03:39:53.862Z,1015.14
2022-11-29T03:40:54.050Z,1015.16
2022-11-29T03:41:54.227Z,1015.16
2022-11-29T03:42:52.864Z,1015.15
2022-11-29T03:43:55.010Z,1015.15
2022-11-29T03:44:55.184Z,1015.12
2022-11-29T03:45:55.352Z,1015.14
2022-11-29T03:46:55.520Z,1015.12
2022-11-29T03:47:56.232Z,1015.14
2022-11-29T03:48:56.416Z,1015.17
2022-11-29T03:49:56.599Z,1015.15
2022-11-29T03:50:56.791Z,1015.11
2022-11-29T03:51:57.489Z,1015.20
2022-11-29T03:52:57.672Z,1015.19
2022-11-29T03:53:57.863Z,1015.20
2022-11-29T03:54:58.068Z,1015.21
2022-11-29T03:55:58.762Z,1015.22
2022-11-29T03:56:58.933Z,1015.24
2022-11-29T03:57:59.123Z,1015.25
2022-11-29T03:58:59.929Z,1015.29
2022-11-29T04:00:00.014Z,1015.28
2022-11-29T04:01:00.260Z,1015.31
2022-11-29T04:02:00.386Z,1015.33
2022-11-29T04:03:00.713Z,1015.35
2022-11-29T04:04:00.805Z,1015.33
2022-11-29T04:05:01.493Z,1015.37
2022-11-29T04:06:01.688Z,1015.41
2022-11-29T04:07:01.880Z,1015.37
2022-11-29T04:08:02.205Z,1015.37
2022-11-29T04:09:02.768Z,1015.41
2022-11-29T04:10:02.955Z,1015.42
2022-11-29T04:11:03.142Z,1015.43
2022-11-29T04:12:03.343Z,1015.44
2022-11-29T04:13:04.024Z,1015.45
2022-11-29T04:14:02.417Z,1015.42
2022-11-29T04:15:02.731Z,1015.39
2022-11-29T04:16:04.989Z,1015.44
2022-11-29T04:17:03.339Z,1015.46
2022-11-29T04:18:03.649Z,1015.48
2022-11-29T04:19:05.824Z,1015.49
2022-11-29T04:20:04.203Z,1015.49
2022-11-29T04:21:04.536Z,1015.48
2022-11-29T04:22:04.837Z,1015.49
2022-11-29T04:23:07.027Z,1015.52
2022-11-29T04:24:05.416Z,1015.50
2022-11-29T04:25:07.592Z,1015.50
2022-11-29T04:26:05.973Z,1015.47
2022-11-29T04:27:08.162Z,1015.50
2022-11-29T04:28:06.544Z,1015.56
2022-11-29T04:29:08.734Z,1015.54
2022-11-29T04:30:07.114Z,1015.52
2022-11-29T04:31:09.378Z,1015.50
2022-11-29T04:32:07.728Z,1015.56
2022-11-29T04:33:09.915Z,1015.57
2022-11-29T04:34:08.295Z,1015.54
2022-11-29T04:35:10.490Z,1015.54
2022-11-29T04:36:08.867Z,1015.56
2022-11-29T04:37:09.212Z,1015.55
2022-11-29T04:38:09.515Z,1015.60
2022-11-29T04:39:09.833Z,1015.59
2022-11-29T04:40:12.011Z,1015.59
2022-11-29T04:41:10.398Z,1015.64
2022-11-29T04:42:11.514Z,1015.61
2022-11-29T04:43:12.901Z,1015.65
2022-11-29T04:44:11.272Z,1015.70
2022-11-29T04:45:14.917Z,1015.67
2022-11-29T04:46:11.876Z,1015.64
2022-11-29T04:47:14.092Z,1015.69
2022-11-29T04:48:12.331Z,1015.69
2022-11-29T04:49:12.638Z,1015.72
2022-11-29T04:50:14.839Z,1015.70
2022-11-29T04:51:15.013Z,1015.75
2022-11-29T04:52:13.631Z,1015.73
2022-11-29T04:53:13.782Z,1015.69
2022-11-29T04:54:14.094Z,1015.74
2022-11-29T04:55:23.812Z,1015.79
2022-11-29T04:56:15.707Z,1015.78
2022-11-29T04:57:15.919Z,1015.77
2022-11-29T04:58:15.276Z,1015.84
2022-11-29T04:59:15.591Z,1015.83
2022-11-29T05:00:15.897Z,1015.88
2022-11-29T05:01:18.133Z,1015.80
2022-11-29T05:02:16.501Z,1015.87
2022-11-29T05:03:16.807Z,1015.89
2022-11-29T05:04:17.122Z,1015.88
2022-11-29T05:05:19.318Z,1015.89
2022-11-29T05:06:17.694Z,1015.91
2022-11-29T05:07:19.913Z,1015.85
2022-11-29T05:08:18.302Z,1015.90
2022-11-29T05:09:18.619Z,1015.91
2022-11-29T05:10:18.921Z,1015.96
2022-11-29T05:11:24.976Z,1015.90
2022-11-29T05:12:22.404Z,1015.91
2022-11-29T05:13:19.806Z,1015.92
2022-11-29T05:14:20.104Z,1015.97
2022-11-29T05:15:20.414Z,1015.93
2022-11-29T05:16:20.796Z,1015.91
2022-11-29T05:17:22.890Z,1015.91
2022-11-29T05:18:21.278Z,1015.91
2022-11-29T05:19:21.581Z,1015.93
2022-11-29T05:20:21.886Z,1015.94
2022-11-29T05:21:22.195Z,1015.94
2022-11-29T05:22:24.384Z,1015.96
2022-11-29T05:23:22.766Z,1015.96
2022-11-29T05:24:23.066Z,1015.98
2022-11-29T05:25:23.379Z,1015.97
2022-11-29T05:26:25.545Z,1015.99
2022-11-29T05:27:25.730Z,1016.01
2022-11-29T05:28:25.926Z,1016.00
2022-11-29T05:29:26.089Z,1016.07
2022-11-29T05:30:26.793Z,1016.05
2022-11-29T05:31:25.213Z,1016.01
2022-11-29T05:32:27.361Z,1016.05
2022-11-29T05:33:27.537Z,1016.05
2022-11-29T05:34:33.281Z,1016.07
2022-11-29T05:35:27.276Z,1016.04
2022-11-29T05:36:28.478Z,1016.09
2022-11-29T05:37:28.640Z,1016.08
2022-11-29T05:38:28.799Z,1016.08
2022-11-29T05:39:28.980Z,1016.10
2022-11-29T05:40:29.681Z,1016.14
2022-11-29T05:41:29.872Z,1016.15
2022-11-29T05:42:30.069Z,1016.16
2022-11-29T05:43:30.258Z,1016.20
2022-11-29T05:44:30.985Z,1016.19
2022-11-29T05:45:29.261Z,1016.25
2022-11-29T05:46:29.605Z,1016.21
2022-11-29T05:47:31.807Z,1016.25
2022-11-29T05:48:30.142Z,1016.22
2022-11-29T05:49:32.462Z,1016.26
2022-11-29T05:50:31.675Z,1016.29
2022-11-29T05:51:31.041Z,1016.28
2022-11-29T05:52:31.341Z,1016.25
2022-11-29T05:53:31.655Z,1016.29
2022-11-29T05:54:31.982Z,1016.29
2022-11-29T05:55:34.156Z,1016.30
2022-11-29T05:56:32.541Z,1016.31
2022-11-29T05:57:32.853Z,1016.36
2022-11-29T05:58:35.034Z,1016.38
2022-11-29T05:59:35.221Z,1016.37
2022-11-29T06:00:35.402Z,1016.33
2022-11-29T06:01:35.644Z,1016.40
2022-11-29T06:02:36.319Z,1016.35
2022-11-29T06:03:36.457Z,1016.37
2022-11-29T06:04:36.664Z,1016.35
2022-11-29T06:05:36.849Z,1016.36
2022-11-29T06:06:37.059Z,1016.36
2022-11-29T06:07:37.768Z,1016.38
2022-11-29T06:08:37.949Z,1016.39
2022-11-29T06:09:38.285Z,1016.39
2022-11-29T06:10:38.499Z,1016.38
2022-11-29T06:11:38.663Z,1016.42
2022-11-29T06:12:39.360Z,1016.43
2022-11-29T06:13:39.539Z,1016.48
2022-11-29T06:14:38.049Z,1016.48
2022-11-29T06:15:40.231Z,1016.51
2022-11-29T06:16:38.687Z,1016.51
2022-11-29T06:17:40.847Z,1016.47
2022-11-29T06:18:39.109Z,1016.52
2022-11-29T06:19:41.296Z,1016.48
2022-11-29T06:20:41.482Z,1016.50
2022-11-29T06:21:39.989Z,1016.50
2022-11-29T06:22:42.153Z,1016.51
2022-11-29T06:23:40.529Z,1016.51
2022-11-29T06:24:42.973Z,1016.55
2022-11-29T06:25:42.893Z,1016.57
2022-11-29T06:26:41.417Z,1016.62
2022-11-29T06:27:41.696Z,1016.63
2022-11-29T06:28:42.010Z,1016.64
2022-11-29T06:29:44.165Z,1016.64
2022-11-29T06:30:44.359Z,1016.62
2022-11-29T06:31:42.933Z,1016.61
2022-11-29T06:32:43.210Z,1016.62
2022-11-29T06:33:43.517Z,1016.67
2022-11-29T06:34:44.105Z,1016.69
2022-11-29T06:35:46.015Z,1016.72
2022-11-29T06:36:47.647Z,1016.75
2022-11-29T06:37:44.674Z,1016.72
2022-11-29T06:38:45.626Z,1016.72
2022-11-29T06:39:45.231Z,1016.71
2022-11-29T06:40:47.422Z,1016.74
2022-11-29T06:41:46.755Z,1016.74
2022-11-29T06:42:47.985Z,1016.75
2022-11-29T06:43:46.368Z,1016.74
2022-11-29T06:44:47.037Z,1016.79
2022-11-29T06:45:48.849Z,1016.79
2022-11-29T06:46:47.293Z,1016.80
2022-11-29T06:47:47.568Z,1016.82
2022-11-29T06:48:49.675Z,1016.80
2022-11-29T06:49:48.987Z,1016.80
2022-11-29T06:50:49.317Z,1016.84
2022-11-29T06:51:49.634Z,1016.88
2022-11-29T06:52:49.097Z,1016.87
2022-11-29T06:53:49.286Z,1016.89
2022-11-29T06:54:49.627Z,1016.89
2022-11-29T06:55:49.937Z,1016.87
2022-11-29T06:56:50.259Z,1016.90
2022-11-29T06:57:50.586Z,1016.90
2022-11-29T06:58:52.769Z,1016.91
2022-11-29T06:59:52.946Z,1016.90
2022-11-29T07:00:51.512Z,1016.97
2022-11-29T07:01:53.739Z,1016.94
2022-11-29T07:02:51.975Z,1016.96
2022-11-29T07:03:52.306Z,1016.96
2022-11-29T07:04:52.863Z,1017.00
2022-11-29T07:05:52.967Z,1017.02
2022-11-29T07:06:55.157Z,1017.05
2022-11-29T07:07:53.585Z,1017.08
2022-11-29T07:08:53.896Z,1017.04
2022-11-29T07:09:56.057Z,1017.06
2022-11-29T07:10:54.464Z,1017.08
2022-11-29T07:11:55.777Z,1017.08
2022-11-29T07:12:55.028Z,1017.11
2022-11-29T07:13:57.183Z,1017.13
2022-11-29T07:14:57.367Z,1017.15
2022-11-29T07:15:57.611Z,1017.15
2022-11-29T07:16:57.825Z,1017.18
2022-11-29T07:17:58.434Z,1017.15
2022-11-29T07:18:58.598Z,1017.16
2022-11-29T07:19:58.761Z,1017.19
2022-11-29T07:20:58.935Z,1017.16
2022-11-29T07:21:58.962Z,1017.21
2022-11-29T07:22:59.828Z,1017.21
2022-11-29T07:23:58.225Z,1017.24
2022-11-29T07:25:00.414Z,1017.19
2022-11-29T07:25:58.831Z,1017.23
2022-11-29T07:26:59.805Z,1017.25
2022-11-29T07:27:59.509Z,1017.27
2022-11-29T07:28:59.857Z,1017.29
2022-11-29T07:30:02.040Z,1017.29
2022-11-29T07:31:00.580Z,1017.31
2022-11-29T07:32:00.746Z,1017.28
2022-11-29T07:33:01.087Z,1017.31
2022-11-29T07:34:03.242Z,1017.33
2022-11-29T07:35:03.423Z,1017.33
2022-11-29T07:36:03.608Z,1017.33
2022-11-29T07:37:03.808Z,1017.36
2022-11-29T07:38:04.497Z,1017.35
2022-11-29T07:39:03.667Z,1017.34
2022-11-29T07:40:04.891Z,1017.36
2022-11-29T07:41:05.051Z,1017.35
2022-11-29T07:42:05.696Z,1017.39
2022-11-29T07:43:05.931Z,1017.36
2022-11-29T07:44:06.087Z,1017.39
2022-11-29T07:45:06.278Z,1017.38
2022-11-29T07:46:06.971Z,1017.33
2022-11-29T07:47:07.210Z,1017.37
2022-11-29T07:48:07.546Z,1017.35
2022-11-29T07:49:07.623Z,1017.34
2022-11-29T07:50:09.730Z,1017.31
2022-11-29T07:51:08.474Z,1017.33
2022-11-29T07:52:06.879Z,1017.39
2022-11-29T07:53:07.214Z,1017.35
2022-11-29T07:54:07.550Z,1017.41
2022-11-29T07:55:12.227Z,1017.39
2022-11-29T07:56:08.203Z,1017.39
2022-11-29T07:57:08.538Z,1017.42
2022-11-29T07:58:10.735Z,1017.42
2022-11-29T07:59:09.170Z,1017.40
2022-11-29T08:00:09.488Z,1017.41
2022-11-29T08:01:09.845Z,1017.38
2022-11-29T08:02:11.841Z,1017.44
2022-11-29T08:03:12.382Z,1017.46
2022-11-29T08:04:10.663Z,1017.46
2022-11-29T08:05:11.122Z,1017.48
2022-11-29T08:06:14.201Z,1017.48
2022-11-29T08:07:13.634Z,1017.47
2022-11-29T08:08:11.929Z,1017.47
2022-11-29T08:09:14.153Z,1017.50
2022-11-29T08:10:12.438Z,1017.44
2022-11-29T08:11:17.052Z,1017.46
2022-11-29T08:12:13.129Z,1017.49
2022-11-29T08:13:13.372Z,1017.51
2022-11-29T08:14:13.593Z,1017.47
2022-11-29T08:15:13.821Z,1017.48
2022-11-29T08:16:14.090Z,1017.50
2022-11-29T08:17:16.242Z,1017.51
2022-11-29T08:18:17.383Z,1017.51
2022-11-29T08:19:14.824Z,1017.48
2022-11-29T08:20:17.957Z,1017.52
2022-11-29T08:21:17.734Z,1017.52
2022-11-29T08:22:15.527Z,1017.52
2022-11-29T08:23:15.881Z,1017.52
2022-11-29T08:24:16.121Z,1017.49
2022-11-29T08:25:18.320Z,1017.48
2022-11-29T08:26:16.609Z,1017.49
2022-11-29T08:27:18.803Z,1017.51
2022-11-29T08:28:17.251Z,1017.51
2022-11-29T08:29:17.480Z,1017.51
2022-11-29T08:30:17.698Z,1017.55
2022-11-29T08:31:17.989Z,1017.52
2022-11-29T08:32:20.109Z,1017.53
2022-11-29T08:33:18.408Z,1017.58
2022-11-29T08:34:18.647Z,1017.55
2022-11-29T08:35:18.865Z,1017.57
2022-11-29T08:36:19.091Z,1017.56
2022-11-29T08:37:21.289Z,1017.57
2022-11-29T08:38:20.256Z,1017.54
2022-11-29T08:39:20.996Z,1017.47
2022-11-29T08:40:20.275Z,1017.58
2022-11-29T08:41:22.461Z,1017.54
2022-11-29T08:42:22.649Z,1017.56
2022-11-29T08:43:21.924Z,1017.62
2022-11-29T08:44:21.321Z,1017.59
2022-11-29T08:45:21.551Z,1017.57
2022-11-29T08:46:23.751Z,1017.62
2022-11-29T08:47:25.383Z,1017.62
2022-11-29T08:48:22.314Z,1017.62
2022-11-29T08:49:24.504Z,1017.63
2022-11-29T08:50:22.805Z,1017.66
2022-11-29T08:51:24.041Z,1017.65
2022-11-29T08:52:25.226Z,1017.64
2022-11-29T08:53:23.653Z,1017.66
2022-11-29T08:54:23.903Z,1017.66
2022-11-29T08:55:26.094Z,1017.58
2022-11-29T08:57:10.121Z,1017.68
2022-11-29T08:57:39.869Z,1017.69
2022-11-29T08:58:25.950Z,1017.67
2022-11-29T08:59:25.235Z,1017.70
2022-11-29T09:00:27.444Z,1017.68
2022-11-29T09:01:25.790Z,1017.68
2022-11-29T09:02:25.995Z,1017.71
2022-11-29T09:03:28.187Z,1017.73
2022-11-29T09:04:26.477Z,1017.76
2022-11-29T09:05:28.657Z,1017.70
2022-11-29T09:06:27.077Z,1017.71
2022-11-29T09:07:27.491Z,1017.70
2022-11-29T09:08:29.613Z,1017.70
2022-11-29T09:09:28.026Z,1017.75
2022-11-29T09:10:30.096Z,1017.78
2022-11-29T09:11:29.525Z,1017.74
2022-11-29T09:12:30.798Z,1017.77
2022-11-29T09:13:29.039Z,1017.77
2022-11-29T09:14:31.252Z,1017.82
2022-11-29T09:15:31.458Z,1017.80
2022-11-29T09:16:29.909Z,1017.79
2022-11-29T09:17:32.250Z,1017.88
2022-11-29T09:18:30.546Z,1017.83
2022-11-29T09:19:31.735Z,1017.89
2022-11-29T09:20:32.915Z,1017.90
2022-11-29T09:21:32.384Z,1017.88
2022-11-29T09:22:31.667Z,1017.90
2022-11-29T09:23:31.897Z,1017.87
2022-11-29T09:24:32.145Z,1017.89
2022-11-29T09:25:34.341Z,1017.90
2022-11-29T09:26:34.539Z,1017.92
2022-11-29T09:27:34.744Z,1017.92
2022-11-29T09:28:34.935Z,1017.91
2022-11-29T09:29:35.636Z,1017.89
2022-11-29T09:30:34.184Z,1017.88
2022-11-29T09:31:36.281Z,1017.94
2022-11-29T09:32:36.452Z,1017.92
2022-11-29T09:33:36.643Z,1017.97
2022-11-29T09:34:37.323Z,1018.00
2022-11-29T09:35:37.514Z,1017.99
2022-11-29T09:36:37.688Z,1018.00
2022-11-29T09:37:37.879Z,1018.03
2022-11-29T09:38:38.067Z,1018.01
2022-11-29T09:39:38.761Z,1018.03
2022-11-29T09:40:39.130Z,1018.07
2022-11-29T09:41:41.111Z,1018.07
2022-11-29T09:42:38.664Z,1018.01
2022-11-29T09:43:39.859Z,1018.10
2022-11-29T09:44:40.042Z,1018.09
2022-11-29T09:45:40.233Z,1018.07
2022-11-29T09:46:40.380Z,1018.11
2022-11-29T09:47:41.066Z,1018.08
2022-11-29T09:48:41.265Z,1018.15
2022-11-29T09:49:41.445Z,1018.15
2022-11-29T09:50:41.648Z,1018.14
2022-11-29T09:51:44.347Z,1018.13
2022-11-29T09:52:42.527Z,1018.11
2022-11-29T09:53:42.706Z,1018.12
2022-11-29T09:54:43.193Z,1018.10
2022-11-29T09:55:43.587Z,1018.09
2022-11-29T09:56:43.779Z,1018.08
2022-11-29T09:57:45.409Z,1018.13
2022-11-29T09:58:44.169Z,1018.11
2022-11-29T09:59:44.340Z,1018.11
2022-11-29T10:00:45.020Z,1018.14
2022-11-29T10:01:45.191Z,1018.11
2022-11-29T10:02:45.467Z,1018.13
2022-11-29T10:03:44.014Z,1018.13
2022-11-29T10:04:46.421Z,1018.17
2022-11-29T10:05:46.371Z,1018.16
2022-11-29T10:06:46.559Z,1018.14
2022-11-29T10:07:46.751Z,1018.15
2022-11-29T10:08:45.520Z,1018.20
2022-11-29T10:09:45.822Z,1018.22
2022-11-29T10:10:48.027Z,1018.17
2022-11-29T10:11:48.209Z,1018.20
2022-11-29T10:12:46.635Z,1018.24
2022-11-29T10:13:46.876Z,1018.19
2022-11-29T10:14:47.443Z,1018.20
2022-11-29T10:15:47.373Z,1018.23
2022-11-29T10:16:49.565Z,1018.24
2022-11-29T10:17:49.693Z,1018.20
2022-11-29T10:18:48.120Z,1018.22
2022-11-29T10:19:50.369Z,1018.18
2022-11-29T10:20:49.373Z,1018.20
2022-11-29T10:21:50.821Z,1018.22
2022-11-29T10:22:51.100Z,1018.25
2022-11-29T10:23:49.519Z,1018.24
2022-11-29T10:24:50.296Z,1018.21
2022-11-29T10:25:50.200Z,1018.17
2022-11-29T10:26:52.383Z,1018.22
2022-11-29T10:27:50.790Z,1018.23
2022-11-29T10:28:51.020Z,1018.22
2022-11-29T10:29:51.247Z,1018.23
2022-11-29T10:30:51.619Z,1018.23
2022-11-29T10:31:53.775Z,1018.24
2022-11-29T10:32:52.925Z,1018.20
2022-11-29T10:33:54.282Z,1018.24
2022-11-29T10:34:53.498Z,1018.25
2022-11-29T10:35:52.911Z,1018.27
2022-11-29T10:36:53.261Z,1018.24
2022-11-29T10:38:22.763Z,1018.23
2022-11-29T10:38:56.671Z,1018.25
2022-11-29T10:39:54.109Z,1018.25
2022-11-29T10:40:54.464Z,1018.22
2022-11-29T10:41:54.681Z,1018.25
2022-11-29T10:42:56.858Z,1018.21
2022-11-29T10:43:57.041Z,1018.25
2022-11-29T10:44:55.593Z,1018.24
2022-11-29T10:45:55.865Z,1018.25
2022-11-29T10:46:56.971Z,1018.25
2022-11-29T10:47:58.349Z,1018.22
2022-11-29T10:48:58.545Z,1018.26
2022-11-29T10:49:57.091Z,1018.25
2022-11-29T10:50:57.443Z,1018.24
2022-11-29T10:51:59.616Z,1018.24
2022-11-29T10:53:00.230Z,1018.23
2022-11-29T10:53:58.210Z,1018.27
2022-11-29T10:54:58.561Z,1018.24
2022-11-29T10:55:58.788Z,1018.23
2022-11-29T10:56:59.973Z,1018.23
2022-11-29T10:57:59.255Z,1018.20
2022-11-29T10:59:00.422Z,1018.26
2022-11-29T11:00:01.623Z,1018.25
2022-11-29T11:01:00.229Z,1018.22
2022-11-29T11:02:02.351Z,1018.21
2022-11-29T11:03:00.775Z,1018.23
2022-11-29T11:04:01.190Z,1018.24
2022-11-29T11:05:01.420Z,1018.27
2022-11-29T11:06:01.640Z,1018.25
2022-11-29T11:07:03.839Z,1018.26
2022-11-29T11:08:02.319Z,1018.25
2022-11-29T11:09:02.506Z,1018.24
2022-11-29T11:10:02.732Z,1018.24
2022-11-29T11:11:02.964Z,1018.28
2022-11-29T11:12:05.148Z,1018.26
2022-11-29T11:13:03.446Z,1018.26
2022-11-29T11:14:03.668Z,1018.23
2022-11-29T11:15:03.900Z,1018.30
2022-11-29T11:16:04.136Z,1018.29
2022-11-29T11:17:06.336Z,1018.32
2022-11-29T11:18:04.615Z,1018.28
2022-11-29T11:19:06.827Z,1018.29
2022-11-29T11:20:07.011Z,1018.29
2022-11-29T11:21:07.177Z,1018.27
2022-11-29T11:22:06.028Z,1018.30
2022-11-29T11:23:07.689Z,1018.28
2022-11-29T11:24:07.867Z,1018.28
2022-11-29T11:25:08.562Z,1018.30
2022-11-29T11:26:08.776Z,1018.30
2022-11-29T11:27:08.966Z,1018.28
2022-11-29T11:28:09.141Z,1018.28
2022-11-29T11:29:09.853Z,1018.30
2022-11-29T11:30:10.033Z,1018.33
2022-11-29T11:31:10.269Z,1018.34
2022-11-29T11:32:08.921Z,1018.37
2022-11-29T11:33:11.104Z,1018.34
2022-11-29T11:34:09.398Z,1018.29
2022-11-29T11:35:13.108Z,1018.35
2022-11-29T11:36:10.992Z,1018.36
2022-11-29T11:37:10.266Z,1018.37
2022-11-29T11:38:12.434Z,1018.39
2022-11-29T11:39:10.742Z,1018.37
2022-11-29T11:40:12.947Z,1018.36
2022-11-29T11:41:11.218Z,1018.39
2022-11-29T11:42:11.442Z,1018.41
2022-11-29T11:43:11.786Z,1018.36
2022-11-29T11:44:15.336Z,1018.37
2022-11-29T11:45:15.314Z,1018.38
2022-11-29T11:46:17.676Z,1018.36
2022-11-29T11:47:14.100Z,1018.39
2022-11-29T11:48:13.377Z,1018.39
2022-11-29T11:49:13.740Z,1018.39
2022-11-29T11:50:15.921Z,1018.42
2022-11-29T11:51:16.115Z,1018.42
2022-11-29T11:52:16.299Z,1018.45
2022-11-29T11:53:16.486Z,1018.43
2022-11-29T11:54:16.684Z,1018.45
2022-11-29T11:55:17.419Z,1018.43
2022-11-29T11:56:17.643Z,1018.42
2022-11-29T11:57:17.805Z,1018.42
2022-11-29T11:58:17.996Z,1018.43
2022-11-29T11:59:18.197Z,1018.47
2022-11-29T12:00:34.497Z,1018.42
2022-11-29T12:01:18.248Z,1018.43
2022-11-29T12:02:19.466Z,1018.46
2022-11-29T12:03:19.688Z,1018.45
2022-11-29T12:04:19.801Z,1018.42
2022-11-29T12:05:20.011Z,1018.45
2022-11-29T12:06:20.205Z,1018.43
2022-11-29T12:07:33.785Z,1018.48
2022-11-29T12:08:20.404Z,1018.45
2022-11-29T12:09:21.537Z,1018.49